Time;durP1;ratioP1;P1;durP2;ratioP2;P2;SDS_P1;SDS_P2;PMS_P1;PMS_P2;Temp;Humidity;BMP_temperature;BMP_pressure;BME280_temperature;BME280_humidity;BME280_pressure;Samples;Min_cycle;Max_cycle;Signal;HPM_P1;HPM_P2
2023/11/28 00:00:23;;;;;;;;;;;;;;;-0.50;100.00;99338.25;6214919;23;20244;-79
2023/11/28 00:02:48;;;;;;;;;;;;;;;-0.54;100.00;99334.31;6214771;23;20190;-78
2023/11/28 00:05:13;;;;;;;;;;;;;;;-0.52;100.00;99342.88;6217540;23;19987;-78
2023/11/28 00:07:39;;;;;;;;;;;;;;;-0.54;100.00;99334.31;6216342;23;19923;-78
2023/11/28 00:10:05;;;;;;;;;;;;;;;-0.54;100.00;99347.53;6214645;23;19966;-78
2023/11/28 00:12:30;;;;;;;;;;;;;;;-0.54;100.00;99352.81;6215466;23;19924;-78
2023/11/28 00:14:55;;;;;;;;;;;;;;;-0.48;100.00;99360.06;6214506;23;20232;-78
2023/11/28 00:17:20;;;;;;;;;;;;;;;-0.47;100.00;99367.00;6213676;23;20313;-78
2023/11/28 00:19:46;;;;;;;;;;;;;;;-0.48;100.00;99361.91;6215555;23;19916;-78
2023/11/28 00:22:11;;;;;;;;;;;;;;;-0.49;100.00;99371.63;6214398;23;19912;-78
2023/11/28 00:24:36;;;;;;;;;;;;;;;-0.49;100.00;99368.19;6214724;23;20276;-78
2023/11/28 00:27:03;;;;;;;;;;;;;;;-0.46;100.00;99366.03;6217731;23;20218;-78
2023/11/28 00:29:28;;;;;;;;;;;;;;;-0.44;100.00;99367.69;6215504;23;19912;-77
2023/11/28 00:31:53;;;;;;;;;;;;;;;-0.48;100.00;99372.47;6216852;23;20003;-78
2023/11/28 00:34:19;;;;;;;;;;;;;;;-0.48;100.00;99375.94;6217982;23;19971;-78
2023/11/28 00:36:53;;;;;;;;;;;;;;;-0.47;100.00;99384.72;6216935;23;19931;-77
2023/11/28 00:39:18;;;;;;;;;;;;;;;-0.51;100.00;99386.81;6215679;23;19916;-77
2023/11/28 00:41:44;;;;;;;;;;;;;;;-0.49;100.00;99390.13;6218120;23;19912;-77
2023/11/28 00:44:09;;;;;;;;;;;;;;;-0.51;100.00;99381.53;6216163;23;19912;-77
2023/11/28 00:46:41;;;;;;;;;;;;;;;-0.54;100.00;99386.31;6215380;23;19982;-78
2023/11/28 00:49:07;;;;;;;;;;;;;;;-0.56;100.00;99394.44;6217443;23;19919;-77
2023/11/28 00:51:32;;;;;;;;;;;;;;;-0.56;100.00;99390.94;6217056;23;19947;-77
2023/11/28 00:53:57;;;;;;;;;;;;;;;-0.57;100.00;99410.44;6216322;23;19966;-77
2023/11/28 00:56:22;;;;;;;;;;;;;;;-0.61;100.00;99413.38;6217264;23;19912;-77
2023/11/28 00:58:50;;;;;;;;;;;;;;;-0.59;100.00;99421.19;6215184;23;20380;-77
2023/11/28 01:01:20;;;;;;;;;;;;;;;-0.60;100.00;99419.53;6216270;23;19939;-77
2023/11/28 01:03:45;;;;;;;;;;;;;;;-0.61;100.00;99423.16;6216681;23;19932;-77
2023/11/28 01:06:10;;;;;;;;;;;;;;;-0.65;100.00;99435.03;6215190;23;20239;-77
2023/11/28 01:08:36;;;;;;;;;;;;;;;-0.64;100.00;99439.31;6215885;23;19912;-77
2023/11/28 01:11:01;;;;;;;;;;;;;;;-0.65;100.00;99451.72;6219613;23;19923;-77
2023/11/28 01:13:27;;;;;;;;;;;;;;;-0.68;100.00;99451.19;6215016;23;19998;-77
2023/11/28 01:15:52;;;;;;;;;;;;;;;-0.66;100.00;99465.06;6216917;23;20288;-77
2023/11/28 01:18:18;;;;;;;;;;;;;;;-0.65;100.00;99466.72;6216791;23;20329;-77
2023/11/28 01:20:44;;;;;;;;;;;;;;;-0.67;100.00;99471.34;6216992;23;19919;-77
2023/11/28 01:23:09;;;;;;;;;;;;;;;-0.68;100.00;99480.25;6215489;23;20245;-77
2023/11/28 01:25:34;;;;;;;;;;;;;;;-0.64;100.00;99481.59;6215703;23;19916;-77
2023/11/28 01:27:59;;;;;;;;;;;;;;;-0.66;100.00;99483.56;6224675;23;20276;-76
2023/11/28 01:30:25;;;;;;;;;;;;;;;-0.65;100.00;99491.38;6221887;23;19912;-76
2023/11/28 01:32:50;;;;;;;;;;;;;;;-0.69;100.00;99497.09;6217885;23;19974;-76
2023/11/28 01:35:15;;;;;;;;;;;;;;;-0.71;100.00;99499.91;6215614;23;20325;-76
2023/11/28 01:37:40;;;;;;;;;;;;;;;-0.70;100.00;99508.66;6216777;23;19915;-76
2023/11/28 01:40:06;;;;;;;;;;;;;;;-0.72;100.00;99500.91;6218208;23;20379;-76
2023/11/28 01:42:31;;;;;;;;;;;;;;;-0.73;100.00;99514.28;6218983;23;19912;-76
2023/11/28 01:44:57;;;;;;;;;;;;;;;-0.75;100.00;99510.97;6219751;23;20332;-76
2023/11/28 01:47:22;;;;;;;;;;;;;;;-0.75;100.00;99518.88;6219779;23;19912;-76
2023/11/28 01:49:47;;;;;;;;;;;;;;;-0.79;100.00;99519.19;6218425;23;19908;-77
2023/11/28 01:52:12;;;;;;;;;;;;;;;-0.77;100.00;99516.38;6195305;23;19912;-77
2023/11/28 01:54:38;;;;;;;;;;;;;;;-0.78;100.00;99534.06;6225850;23;19935;-77
2023/11/28 01:57:05;;;;;;;;;;;;;;;-0.73;100.00;99546.81;6222009;23;19991;-78
2023/11/28 01:59:30;;;;;;;;;;;;;;;-0.78;100.00;99534.06;6216143;23;19955;-77
2023/11/28 02:01:55;;;;;;;;;;;;;;;-0.77;100.00;99551.59;6217177;23;20005;-77
2023/11/28 02:04:20;;;;;;;;;;;;;;;-0.80;100.00;99545.78;6189936;23;19916;-77
2023/11/28 02:06:46;;;;;;;;;;;;;;;-0.80;100.00;99551.06;6216646;23;19956;-77
2023/11/28 02:09:11;;;;;;;;;;;;;;;-0.81;100.00;99563.44;6215186;23;19923;-77
2023/11/28 02:11:36;;;;;;;;;;;;;;;-0.79;100.00;99564.13;6217276;23;19916;-76
2023/11/28 02:14:01;;;;;;;;;;;;;;;-0.79;100.00;99568.56;6217601;23;19958;-77
2023/11/28 02:16:28;;;;;;;;;;;;;;;-0.80;100.00;99575.66;6233761;23;19912;-77
2023/11/28 02:18:53;;;;;;;;;;;;;;;-0.82;100.00;99572.34;6231404;23;19911;-77
2023/11/28 02:21:18;;;;;;;;;;;;;;;-0.84;100.00;99576.94;6218274;23;19947;-77
2023/11/28 02:23:44;;;;;;;;;;;;;;;-0.87;100.00;99590.47;6216125;23;19915;-75
2023/11/28 02:26:25;;;;;;;;;;;;;;;-0.90;100.00;99582.88;6191266;23;19919;-78
2023/11/28 02:28:50;;;;;;;;;;;;;;;-0.87;100.00;99576.44;6215636;23;19935;-76
2023/11/28 02:31:16;;;;;;;;;;;;;;;-0.86;100.00;99589.47;6214642;23;19943;-76
2023/11/28 02:33:41;;;;;;;;;;;;;;;-0.83;100.00;99588.38;6217010;23;20005;-75
2023/11/28 02:36:07;;;;;;;;;;;;;;;-0.86;100.00;99589.47;6216300;23;19990;-76
2023/11/28 02:38:32;;;;;;;;;;;;;;;-0.89;100.00;99600.38;6216825;23;19987;-76
2023/11/28 02:40:57;;;;;;;;;;;;;;;-0.88;100.00;99594.09;6225421;23;19912;-78
2023/11/28 02:43:22;;;;;;;;;;;;;;;-0.86;100.00;99604.53;6222435;23;19912;-76
2023/11/28 02:45:47;;;;;;;;;;;;;;;-0.88;100.00;99612.59;6239292;23;19923;-76
2023/11/28 02:48:13;;;;;;;;;;;;;;;-0.91;100.00;99597.06;6222694;23;19968;-77
2023/11/28 02:50:38;;;;;;;;;;;;;;;-0.92;100.00;99600.69;6231449;23;19912;-77
2023/11/28 02:53:04;;;;;;;;;;;;;;;-0.92;100.00;99620.00;6218954;23;19916;-76
2023/11/28 02:55:29;;;;;;;;;;;;;;;-0.89;100.00;99628.59;6218010;23;20296;-76
2023/11/28 02:57:54;;;;;;;;;;;;;;;-0.91;100.00;99634.06;6215865;23;19974;-77
2023/11/28 03:00:22;;;;;;;;;;;;;;;-0.92;100.00;99633.19;6215368;23;19931;-77
2023/11/28 03:02:47;;;;;;;;;;;;;;;-0.93;100.00;99636.81;6216990;23;19914;-77
2023/11/28 03:05:13;;;;;;;;;;;;;;;-0.95;100.00;99649.34;6216785;23;19920;-77
2023/11/28 03:07:38;;;;;;;;;;;;;;;-0.98;100.00;99641.75;6217707;23;19912;-77
2023/11/28 03:10:03;;;;;;;;;;;;;;;-0.96;100.00;99646.88;6219405;23;19912;-77
2023/11/28 03:12:28;;;;;;;;;;;;;;;-0.99;100.00;99647.16;6219914;23;19939;-77
2023/11/28 03:14:54;;;;;;;;;;;;;;;-0.98;100.00;99649.69;6217900;23;20317;-78
2023/11/28 03:17:19;;;;;;;;;;;;;;;-0.95;100.00;99652.00;6216627;23;20321;-80
2023/11/28 03:19:44;;;;;;;;;;;;;;;-0.95;100.00;99649.34;6214967;23;20297;-79
2023/11/28 03:22:09;;;;;;;;;;;;;;;-0.95;100.00;99656.47;6213202;23;19912;-79
2023/11/28 03:24:35;;;;;;;;;;;;;;;-0.97;100.00;99655.78;6215124;23;19994;-77
2023/11/28 03:27:00;;;;;;;;;;;;;;;-0.97;100.00;99663.72;6213602;23;19971;-78
2023/11/28 03:29:25;;;;;;;;;;;;;;;-0.97;100.00;99655.78;6214353;23;19916;-79
2023/11/28 03:31:50;;;;;;;;;;;;;;;-0.97;100.00;99674.28;6214464;23;19916;-78
2023/11/28 03:34:16;;;;;;;;;;;;;;;-1.00;100.00;99670.13;6213222;23;19920;-79
2023/11/28 03:36:41;;;;;;;;;;;;;;;-1.01;100.00;99691.41;6213593;23;19919;-79
2023/11/28 03:39:06;;;;;;;;;;;;;;;-1.02;100.00;99679.16;6213866;23;19911;-78
2023/11/28 03:41:32;;;;;;;;;;;;;;;-1.00;100.00;99679.84;6213461;23;19916;-78
2023/11/28 03:43:58;;;;;;;;;;;;;;;-1.03;100.00;99686.28;6214221;23;19998;-79
2023/11/28 03:46:23;;;;;;;;;;;;;;;-1.10;100.00;99688.69;6213685;23;19935;-78
2023/11/28 03:48:48;;;;;;;;;;;;;;;-1.09;100.00;99698.28;6213906;23;20321;-79
2023/11/28 03:51:14;;;;;;;;;;;;;;;-1.12;100.00;99701.22;6213338;23;19938;-79
2023/11/28 03:53:39;;;;;;;;;;;;;;;-1.10;100.00;99708.97;6214722;23;19912;-79
2023/11/28 03:56:06;;;;;;;;;;;;;;;-1.12;100.00;99710.94;6213839;23;19915;-79
2023/11/28 03:58:31;;;;;;;;;;;;;;;-1.21;100.00;99712.66;6214256;23;19912;-79
2023/11/28 04:00:56;;;;;;;;;;;;;;;-1.26;100.00;99717.56;6214125;23;19927;-79
2023/11/28 04:03:21;;;;;;;;;;;;;;;-1.30;100.00;99735.50;6213656;23;19915;-79
2023/11/28 04:05:46;;;;;;;;;;;;;;;-1.35;100.00;99731.66;6213830;23;19919;-79
2023/11/28 04:08:12;;;;;;;;;;;;;;;-1.47;100.00;99738.94;6213950;23;19927;-78
2023/11/28 04:10:37;;;;;;;;;;;;;;;-1.61;100.00;99749.00;6219561;23;19928;-79
2023/11/28 04:13:02;;;;;;;;;;;;;;;-1.73;100.00;99756.25;6228273;23;19919;-79
2023/11/28 04:15:27;;;;;;;;;;;;;;;-1.84;100.00;99759.06;6213780;23;19912;-79
2023/11/28 04:17:53;;;;;;;;;;;;;;;-1.94;100.00;99768.84;6213949;23;19918;-79
2023/11/28 04:20:18;;;;;;;;;;;;;;;-2.06;100.00;99768.16;6213277;23;19912;-79
2023/11/28 04:22:43;;;;;;;;;;;;;;;-2.15;100.00;99781.22;6214580;23;19980;-79
2023/11/28 04:25:08;;;;;;;;;;;;;;;-2.22;100.00;99782.75;6214213;23;19912;-79
2023/11/28 04:27:34;;;;;;;;;;;;;;;-2.33;100.00;99794.28;6213314;23;20313;-79
2023/11/28 04:29:59;;;;;;;;;;;;;;;-2.36;100.00;99797.19;6213293;23;19908;-78
2023/11/28 04:32:24;;;;;;;;;;;;;;;-2.40;100.00;99797.63;6216860;23;19912;-79
2023/11/28 04:34:49;;;;;;;;;;;;;;;-2.39;100.00;99796.66;6214060;23;19916;-79
2023/11/28 04:37:15;;;;;;;;;;;;;;;-2.44;100.00;99797.03;6213549;23;20228;-79
2023/11/28 04:39:40;;;;;;;;;;;;;;;-2.44;100.00;99794.41;6215220;23;20245;-79
2023/11/28 04:42:05;;;;;;;;;;;;;;;-2.46;100.00;99801.59;6213157;23;20260;-80
2023/11/28 04:44:30;;;;;;;;;;;;;;;-2.48;100.00;99806.22;6212808;23;20245;-79
2023/11/28 04:46:56;;;;;;;;;;;;;;;-2.49;100.00;99794.00;6214725;23;19991;-79
2023/11/28 04:49:23;;;;;;;;;;;;;;;-2.47;100.00;99811.34;6213464;23;19912;-79
2023/11/28 04:51:48;;;;;;;;;;;;;;;-2.52;100.00;99818.00;6186637;23;20240;-79
2023/11/28 04:54:14;;;;;;;;;;;;;;;-2.54;100.00;99830.47;6214202;23;19912;-78
2023/11/28 04:56:42;;;;;;;;;;;;;;;-2.56;100.00;99819.22;6214730;23;19923;-77
2023/11/28 04:59:07;;;;;;;;;;;;;;;-2.61;100.00;99828.38;6212229;23;19915;-76
2023/11/28 05:01:33;;;;;;;;;;;;;;;-2.63;100.00;99830.31;6214938;23;19962;-77
2023/11/28 05:03:58;;;;;;;;;;;;;;;-2.63;100.00;99835.56;6213119;23;19959;-77
2023/11/28 05:06:24;;;;;;;;;;;;;;;-2.70;100.00;99842.38;6213474;23;19915;-77
2023/11/28 05:08:49;;;;;;;;;;;;;;;-2.74;100.00;99848.88;6214234;23;20281;-77
2023/11/28 05:11:14;;;;;;;;;;;;;;;-2.76;100.00;99849.03;6213506;23;20388;-77
2023/11/28 05:13:39;;;;;;;;;;;;;;;-2.79;100.00;99865.09;6214418;23;20272;-77
2023/11/28 05:16:04;;;;;;;;;;;;;;;-2.75;100.00;99861.22;6216609;23;20284;-77
2023/11/28 05:18:30;;;;;;;;;;;;;;;-2.77;100.00;99859.69;6216801;23;19938;-77
2023/11/28 05:20:55;;;;;;;;;;;;;;;-2.75;100.00;99860.38;6215667;23;20374;-77
2023/11/28 05:23:20;;;;;;;;;;;;;;;-2.81;100.00;99872.31;6217518;23;20307;-78
2023/11/28 05:25:47;;;;;;;;;;;;;;;-2.90;100.00;99870.44;6218838;23;20032;-78
2023/11/28 05:28:12;;;;;;;;;;;;;;;-2.91;100.00;99881.94;6217457;23;19912;-78
2023/11/28 05:30:40;;;;;;;;;;;;;;;-2.87;100.00;99891.25;6220661;23;20277;-78
2023/11/28 05:33:05;;;;;;;;;;;;;;;-2.88;100.00;99896.69;6228494;23;19937;-77
2023/11/28 05:35:39;;;;;;;;;;;;;;;-2.85;100.00;99896.41;6231354;23;20317;-78
2023/11/28 05:38:05;;;;;;;;;;;;;;;-2.82;100.00;99901.38;6219934;23;19912;-78
2023/11/28 05:40:30;;;;;;;;;;;;;;;-2.80;100.00;99894.19;6216430;23;19926;-78
2023/11/28 05:42:55;;;;;;;;;;;;;;;-2.77;100.00;99902.69;6215499;23;19940;-78
2023/11/28 05:45:20;;;;;;;;;;;;;;;-2.78;100.00;99908.06;6216124;23;20293;-78
2023/11/28 05:47:46;;;;;;;;;;;;;;;-2.78;100.00;99913.31;6215909;23;19915;-78
2023/11/28 05:50:16;;;;;;;;;;;;;;;-2.77;100.00;99920.25;6215762;23;19947;-78
2023/11/28 05:52:41;;;;;;;;;;;;;;;-2.71;100.00;99925.00;6217122;23;20445;-80
2023/11/28 05:55:07;;;;;;;;;;;;;;;-2.72;100.00;99930.41;6216736;23;20320;-79
2023/11/28 05:57:35;;;;;;;;;;;;;;;-2.70;100.00;99926.69;6216980;23;19916;-79
2023/11/28 06:00:00;;;;;;;;;;;;;;;-2.66;100.00;99933.34;6219871;23;19916;-79
2023/11/28 06:02:25;;;;;;;;;;;;;;;-2.61;100.00;99933.75;6218643;23;19982;-79
2023/11/28 06:04:51;;;;;;;;;;;;;;;-2.61;100.00;99946.94;6216157;23;19916;-78
2023/11/28 06:07:16;;;;;;;;;;;;;;;-2.48;100.00;99951.16;6215175;23;19912;-78
2023/11/28 06:09:41;;;;;;;;;;;;;;;-2.45;100.00;99953.50;6215864;23;19997;-78
2023/11/28 06:12:06;;;;;;;;;;;;;;;-2.36;100.00;99950.06;6215136;23;19916;-79
2023/11/28 06:14:32;;;;;;;;;;;;;;;-2.32;100.00;99948.00;6215438;23;19966;-78
2023/11/28 06:16:59;;;;;;;;;;;;;;;-2.21;100.00;99953.16;6215458;23;19912;-78
2023/11/28 06:19:25;;;;;;;;;;;;;;;-2.15;100.00;99955.22;6215071;23;20329;-77
2023/11/28 06:21:50;;;;;;;;;;;;;;;-2.11;100.00;99958.41;6221537;23;19994;-78
2023/11/28 06:24:15;;;;;;;;;;;;;;;-2.05;100.00;99957.88;6230275;23;19916;-78
2023/11/28 06:26:40;;;;;;;;;;;;;;;-2.00;100.00;99963.59;6229501;23;19923;-78
2023/11/28 06:29:05;;;;;;;;;;;;;;;-1.96;100.00;99971.22;6217392;23;20096;-79
2023/11/28 06:31:31;;;;;;;;;;;;;;;-1.98;100.00;99971.34;6217272;23;20237;-78
2023/11/28 06:33:56;;;;;;;;;;;;;;;-1.93;100.00;99984.13;6213755;23;20222;-78
2023/11/28 06:36:21;;;;;;;;;;;;;;;-1.90;100.00;99986.50;6214975;23;20336;-78
2023/11/28 06:38:48;;;;;;;;;;;;;;;-1.88;100.00;99988.03;6216132;23;20210;-78
2023/11/28 06:41:13;;;;;;;;;;;;;;;-1.81;100.00;99990.97;6215077;23;19943;-78
2023/11/28 06:43:41;;;;;;;;;;;;;;;-1.78;100.00;100003.03;6215674;23;19930;-77
2023/11/28 06:46:06;;;;;;;;;;;;;;;-1.80;100.00;100008.47;6216783;23;19920;-79
2023/11/28 06:48:31;;;;;;;;;;;;;;;-1.79;100.00;100011.91;6222109;23;19947;-78
2023/11/28 06:50:57;;;;;;;;;;;;;;;-1.81;100.00;100022.63;6235756;23;20365;-79
2023/11/28 06:53:22;;;;;;;;;;;;;;;-1.76;100.00;100023.03;6229260;23;19943;-79
2023/11/28 06:55:47;;;;;;;;;;;;;;;-1.70;100.00;100027.75;6225854;23;20297;-79
2023/11/28 06:58:12;;;;;;;;;;;;;;;-1.66;100.00;100030.94;6214954;23;20312;-79
2023/11/28 07:00:38;;;;;;;;;;;;;;;-1.68;100.00;100033.72;6216481;23;19951;-78
2023/11/28 07:03:04;;;;;;;;;;;;;;;-1.63;100.00;100035.13;6215189;23;19912;-79
2023/11/28 07:05:29;;;;;;;;;;;;;;;-1.60;100.00;100045.41;6214349;23;19911;-79
2023/11/28 07:07:54;;;;;;;;;;;;;;;-1.57;100.00;100053.03;6215043;23;19915;-79
2023/11/28 07:10:20;;;;;;;;;;;;;;;-1.57;100.00;100058.31;6214077;23;19919;-79
2023/11/28 07:12:45;;;;;;;;;;;;;;;-1.60;100.00;100051.53;6213904;23;19919;-79
2023/11/28 07:15:10;;;;;;;;;;;;;;;-1.53;100.00;100062.34;6214903;23;20024;-79
2023/11/28 07:17:35;;;;;;;;;;;;;;;-1.49;100.00;100058.47;6215597;23;19995;-79
2023/11/28 07:20:01;;;;;;;;;;;;;;;-1.48;100.00;100075.13;6213678;23;20668;-79
2023/11/28 07:22:26;;;;;;;;;;;;;;;-1.44;100.00;100064.19;6215137;23;19912;-79
2023/11/28 07:24:51;;;;;;;;;;;;;;;-1.42;100.00;100064.88;6214981;23;19912;-79
2023/11/28 07:27:17;;;;;;;;;;;;;;;-1.42;100.00;100075.44;6213859;23;19916;-79
2023/11/28 07:29:42;;;;;;;;;;;;;;;-1.40;100.00;100085.84;6213938;23;20410;-79
2023/11/28 07:32:07;;;;;;;;;;;;;;;-1.41;100.00;100090.28;6215201;23;19967;-79
2023/11/28 07:34:33;;;;;;;;;;;;;;;-1.39;100.00;100090.97;6213477;23;20023;-78
2023/11/28 07:36:58;;;;;;;;;;;;;;;-1.38;100.00;100087.38;6214334;23;19947;-79
2023/11/28 07:39:24;;;;;;;;;;;;;;;-1.26;100.00;100090.72;6214842;23;19982;-78
2023/11/28 07:41:49;;;;;;;;;;;;;;;-1.23;100.00;100094.88;6213007;23;19995;-77
2023/11/28 07:44:17;;;;;;;;;;;;;;;-1.24;100.00;100099.34;6215132;23;19912;-78
2023/11/28 07:46:42;;;;;;;;;;;;;;;-1.21;100.00;100103.50;6214745;23;20222;-78
2023/11/28 07:49:10;;;;;;;;;;;;;;;-1.25;100.00;100110.88;6213127;23;19958;-78
2023/11/28 07:51:36;;;;;;;;;;;;;;;-1.23;100.00;100110.72;6214872;23;19911;-78
2023/11/28 07:54:01;;;;;;;;;;;;;;;-1.20;100.00;100120.19;6213963;23;19922;-78
2023/11/28 07:56:26;;;;;;;;;;;;;;;-1.20;100.00;100125.47;6214041;23;19990;-78
2023/11/28 07:58:52;;;;;;;;;;;;;;;-1.22;100.00;100137.00;6214219;23;19959;-78
2023/11/28 08:01:17;;;;;;;;;;;;;;;-1.19;100.00;100143.81;6214647;23;19911;-78
2023/11/28 08:03:42;;;;;;;;;;;;;;;-1.13;100.00;100147.69;6213937;23;19912;-78
2023/11/28 08:06:08;;;;;;;;;;;;;;;-1.16;100.00;100143.53;6214222;23;20054;-78
2023/11/28 08:08:33;;;;;;;;;;;;;;;-1.12;100.00;100144.09;6214188;23;19912;-78
2023/11/28 08:10:59;;;;;;;;;;;;;;;-1.08;100.00;100150.78;6214199;23;20042;-78
2023/11/28 08:13:24;;;;;;;;;;;;;;;-1.03;100.00;100153.00;6213903;23;20360;-78
2023/11/28 08:15:50;;;;;;;;;;;;;;;-1.04;100.00;100153.97;6222099;23;19919;-78
2023/11/28 08:18:15;;;;;;;;;;;;;;;-1.04;100.00;100164.53;6224081;23;19996;-78
2023/11/28 08:20:40;;;;;;;;;;;;;;;-1.03;100.00;100171.47;6215437;23;20237;-78
2023/11/28 08:23:05;;;;;;;;;;;;;;;-1.04;100.00;100177.72;6214407;23;20245;-78
2023/11/28 08:25:32;;;;;;;;;;;;;;;-0.99;100.00;100178.16;6214255;23;20234;-78
2023/11/28 08:27:57;;;;;;;;;;;;;;;-1.03;100.00;100174.13;6213508;23;19916;-78
2023/11/28 08:30:22;;;;;;;;;;;;;;;-1.00;100.00;100176.50;6215078;23;19919;-78
2023/11/28 08:32:48;;;;;;;;;;;;;;;-1.03;100.00;100190.81;6214590;23;19916;-78
2023/11/28 08:35:13;;;;;;;;;;;;;;;-1.07;100.00;100182.34;6213412;23;19919;-78
2023/11/28 08:37:38;;;;;;;;;;;;;;;-1.01;100.00;100183.59;6188074;23;19912;-78
2023/11/28 08:40:05;;;;;;;;;;;;;;;-1.00;100.00;100194.97;6213483;23;19916;-78
2023/11/28 08:42:31;;;;;;;;;;;;;;;-0.98;100.00;100190.41;6214825;23;19955;-78
2023/11/28 08:44:59;;;;;;;;;;;;;;;-0.95;100.00;100187.50;6213693;23;19944;-78
2023/11/28 08:47:24;;;;;;;;;;;;;;;-0.83;100.00;100186.38;6215338;23;19962;-79
2023/11/28 08:49:49;;;;;;;;;;;;;;;-0.80;100.00;100185.28;6216206;23;19958;-79
2023/11/28 08:52:14;;;;;;;;;;;;;;;-0.75;100.00;100195.41;6216416;23;19916;-79
2023/11/28 08:54:46;;;;;;;;;;;;;;;-0.66;100.00;100187.50;6216294;23;19919;-78
2023/11/28 08:57:13;;;;;;;;;;;;;;;-0.48;100.00;100200.81;6214822;23;20222;-78
2023/11/28 08:59:39;;;;;;;;;;;;;;;-0.37;100.00;100207.75;6217358;23;20236;-79
2023/11/28 09:02:04;;;;;;;;;;;;;;;-0.19;100.00;100209.69;6217553;23;19987;-79
2023/11/28 09:04:29;;;;;;;;;;;;;;;-0.07;100.00;100210.34;6216300;23;19922;-78
2023/11/28 09:06:54;;;;;;;;;;;;;;;0.10;100.00;100212.25;6218563;23;19916;-78
2023/11/28 09:09:21;;;;;;;;;;;;;;;0.14;98.34;100216.28;6219157;23;20305;-78
2023/11/28 09:11:46;;;;;;;;;;;;;;;0.25;97.58;100217.06;6218601;23;19919;-78
2023/11/28 09:14:11;;;;;;;;;;;;;;;0.36;97.10;100227.47;6219615;23;19912;-79
2023/11/28 09:16:36;;;;;;;;;;;;;;;0.39;96.29;100223.72;6224352;23;19935;-78
2023/11/28 09:19:02;;;;;;;;;;;;;;;0.35;96.03;100228.47;6222225;23;20292;-80
2023/11/28 09:21:27;;;;;;;;;;;;;;;0.29;95.83;100229.84;6190845;23;19928;-79
2023/11/28 09:23:53;;;;;;;;;;;;;;;0.27;95.83;100242.41;6216601;23;20018;-79
2023/11/28 09:26:18;;;;;;;;;;;;;;;0.26;95.60;100246.06;6214635;23;20395;-79
2023/11/28 09:28:43;;;;;;;;;;;;;;;0.30;96.42;100247.41;6215739;23;20329;-79
2023/11/28 09:31:08;;;;;;;;;;;;;;;0.35;96.57;100248.78;6216314;23;20340;-79
2023/11/28 09:33:35;;;;;;;;;;;;;;;0.49;98.14;100250.16;6214804;23;20376;-80
2023/11/28 09:36:00;;;;;;;;;;;;;;;0.53;96.24;100254.19;6219025;23;19939;-80
2023/11/28 09:38:25;;;;;;;;;;;;;;;0.60;96.18;100257.88;6228888;23;19916;-79
2023/11/28 09:40:50;;;;;;;;;;;;;;;0.63;94.11;100256.75;6215601;23;20232;-79
2023/11/28 09:43:16;;;;;;;;;;;;;;;0.65;94.17;100260.09;6216775;23;19966;-79
2023/11/28 09:45:41;;;;;;;;;;;;;;;0.69;93.89;100264.97;6221084;23;19920;-79
2023/11/28 09:48:10;;;;;;;;;;;;;;;0.80;94.72;100268.41;6218008;23;19912;-79
2023/11/28 09:50:35;;;;;;;;;;;;;;;0.87;93.86;100272.13;6218325;23;20325;-80
2023/11/28 09:53:00;;;;;;;;;;;;;;;0.85;94.06;100274.09;6217617;23;19923;-79
2023/11/28 09:55:26;;;;;;;;;;;;;;;0.88;93.48;100271.97;6214490;23;20333;-79
2023/11/28 09:57:51;;;;;;;;;;;;;;;0.80;93.67;100268.41;6214272;23;19912;-79
2023/11/28 10:00:17;;;;;;;;;;;;;;;0.56;94.65;100278.53;6189879;23;19912;-79
2023/11/28 10:02:42;;;;;;;;;;;;;;;0.42;95.54;100266.59;6215114;23;19916;-80
2023/11/28 10:05:08;;;;;;;;;;;;;;;0.25;97.23;100264.72;6188472;23;20218;-78
2023/11/28 10:07:33;;;;;;;;;;;;;;;0.18;96.85;100267.09;6215418;23;19919;-77
2023/11/28 10:09:59;;;;;;;;;;;;;;;0.10;98.84;100272.28;6200565;23;19923;-78
2023/11/28 10:12:24;;;;;;;;;;;;;;;0.09;98.83;100268.81;6237515;23;20244;-78
2023/11/28 10:14:50;;;;;;;;;;;;;;;0.00;98.61;100272.31;6201702;23;19912;-78
2023/11/28 10:17:15;;;;;;;;;;;;;;;-0.07;99.58;100279.97;6192140;23;19918;-79
2023/11/28 10:19:42;;;;;;;;;;;;;;;-0.09;97.95;100270.50;6217808;23;20343;-78
2023/11/28 10:22:08;;;;;;;;;;;;;;;-0.13;98.70;100269.97;6216404;23;19943;-78
2023/11/28 10:24:33;;;;;;;;;;;;;;;-0.08;98.55;100275.66;6189317;23;19916;-79
2023/11/28 10:26:58;;;;;;;;;;;;;;;-0.09;97.87;100276.63;6217273;23;19948;-78
2023/11/28 10:29:24;;;;;;;;;;;;;;;-0.09;99.04;100278.44;6219382;23;20268;-78
2023/11/28 10:31:49;;;;;;;;;;;;;;;-0.06;96.08;100273.69;6217012;23;19922;-78
2023/11/28 10:34:14;;;;;;;;;;;;;;;0.00;97.04;100277.63;6216211;23;19970;-78
2023/11/28 10:36:43;;;;;;;;;;;;;;;-0.01;96.26;100276.75;6214868;23;20352;-77
2023/11/28 10:39:08;;;;;;;;;;;;;;;0.08;95.67;100274.25;6215531;23;19912;-78
2023/11/28 10:41:34;;;;;;;;;;;;;;;0.07;96.15;100276.03;6215731;23;19912;-78
2023/11/28 10:43:59;;;;;;;;;;;;;;;0.11;95.37;100271.28;6219114;23;20339;-78
2023/11/28 10:46:25;;;;;;;;;;;;;;;0.12;96.33;100271.16;6219994;23;19916;-78
2023/11/28 10:48:50;;;;;;;;;;;;;;;0.12;97.14;100276.47;6190595;23;19923;-78
2023/11/28 10:51:16;;;;;;;;;;;;;;;0.18;97.35;100268.94;6216319;23;20509;-78
2023/11/28 10:53:44;;;;;;;;;;;;;;;0.20;95.56;100264.31;6188959;23;20313;-78
2023/11/28 10:56:09;;;;;;;;;;;;;;;0.29;96.36;100268.75;6187993;23;19916;-80
2023/11/28 10:58:34;;;;;;;;;;;;;;;0.38;96.51;100259.94;6200296;23;19916;-78
2023/11/28 11:01:02;;;;;;;;;;;;;;;0.48;93.77;100265.19;6192388;23;20252;-78
2023/11/28 11:03:27;;;;;;;;;;;;;;;0.70;94.59;100271.09;6189659;23;19947;-79
2023/11/28 11:05:53;;;;;;;;;;;;;;;0.84;93.03;100280.38;6214225;23;19912;-78
2023/11/28 11:08:18;;;;;;;;;;;;;;;0.97;91.02;100280.84;6190857;23;19916;-79
2023/11/28 11:10:44;;;;;;;;;;;;;;;1.26;91.33;100285.13;6215891;23;19919;-79
2023/11/28 11:13:09;;;;;;;;;;;;;;;1.30;86.39;100281.19;6190119;23;19923;-78
2023/11/28 11:15:35;;;;;;;;;;;;;;;1.36;86.57;100290.34;6215935;23;20236;-78
2023/11/28 11:18:06;;;;;;;;;;;;;;;1.57;88.54;100287.44;6214525;23;19916;-78
2023/11/28 11:20:32;;;;;;;;;;;;;;;1.72;87.13;100289.53;6213447;23;19912;-79
2023/11/28 11:23:00;;;;;;;;;;;;;;;1.67;87.88;100287.34;6216607;23;19998;-79
2023/11/28 11:25:41;;;;;;;;;;;;;;;1.56;87.37;100288.41;6186691;23;19915;-79
2023/11/28 11:28:07;;;;;;;;;;;;;;;1.60;86.67;100289.75;6213883;23;19916;-79
2023/11/28 11:30:38;;;;;;;;;;;;;;;1.59;87.93;100295.22;6215070;23;19992;-79
2023/11/28 11:33:07;;;;;;;;;;;;;;;1.47;87.36;100294.63;6212839;23;19923;-78
2023/11/28 11:35:52;;;;;;;;;;;;;;;1.46;86.45;100300.91;6214839;23;19912;-78
2023/11/28 11:38:27;;;;;;;;;;;;;;;1.52;86.54;100301.13;6213517;23;19966;-79
2023/11/28 11:40:52;;;;;;;;;;;;;;;1.52;85.29;100306.44;6212716;23;19919;-79
2023/11/28 11:43:18;;;;;;;;;;;;;;;1.57;85.81;100299.84;6214393;23;19912;-79
2023/11/28 11:45:46;;;;;;;;;;;;;;;1.51;86.19;100304.75;6188836;23;19916;-79
2023/11/28 11:48:13;;;;;;;;;;;;;;;1.45;86.74;100315.16;6186443;23;20244;-78
2023/11/28 11:50:38;;;;;;;;;;;;;;;1.50;86.17;100318.19;6215101;23;19939;-79
2023/11/28 11:53:06;;;;;;;;;;;;;;;1.39;85.59;100323.72;6186343;23;20241;-79
2023/11/28 11:55:31;;;;;;;;;;;;;;;1.35;87.20;100321.38;6188101;23;19935;-79
2023/11/28 11:57:57;;;;;;;;;;;;;;;1.51;87.77;100320.69;6213756;23;19912;-78
2023/11/28 12:00:22;;;;;;;;;;;;;;;1.80;88.70;100313.47;6190209;23;19935;-79
2023/11/28 12:02:48;;;;;;;;;;;;;;;1.84;87.50;100314.84;6188500;23;19918;-78
2023/11/28 12:05:14;;;;;;;;;;;;;;;1.91;83.88;100315.06;6214999;23;19919;-78
2023/11/28 12:07:39;;;;;;;;;;;;;;;1.67;85.91;100314.69;6214525;23;19912;-78
2023/11/28 12:10:07;;;;;;;;;;;;;;;1.76;87.52;100312.13;6213776;23;20385;-78
2023/11/28 12:12:32;;;;;;;;;;;;;;;1.79;87.66;100319.75;6217695;23;19919;-78
2023/11/28 12:14:58;;;;;;;;;;;;;;;1.84;86.78;100320.16;6215345;23;20345;-78
2023/11/28 12:17:23;;;;;;;;;;;;;;;1.66;87.47;100318.34;6206855;22;20352;-78
2023/11/28 12:19:50;;;;;;;;;;;;;;;1.63;88.11;100328.44;6199160;23;19913;-80
2023/11/28 12:22:15;;;;;;;;;;;;;;;1.62;89.00;100324.94;6187727;23;19922;-78
2023/11/28 12:24:44;;;;;;;;;;;;;;;1.65;88.83;100324.63;6187418;23;19947;-78
2023/11/28 12:27:09;;;;;;;;;;;;;;;1.69;87.53;100316.38;6186117;23;19947;-78
2023/11/28 12:29:36;;;;;;;;;;;;;;;1.64;86.93;100315.00;6187374;23;20336;-78